createdAt,value
2023-05-23T00:00:43.294Z,3.20
2023-05-23T00:03:16.370Z,2.95
2023-05-23T00:05:46.389Z,2.92
2023-05-23T00:08:15.377Z,3.28
2023-05-23T00:10:47.905Z,2.35
2023-05-23T00:13:20.142Z,2.90
2023-05-23T00:15:54.130Z,2.97
2023-05-23T00:18:22.356Z,2.63
2023-05-23T00:20:53.566Z,2.80
2023-05-23T00:23:21.419Z,2.80
2023-05-23T00:25:54.230Z,2.80
2023-05-23T00:28:21.154Z,2.53
2023-05-23T00:30:51.654Z,2.60
2023-05-23T00:33:23.920Z,2.15
2023-05-23T00:35:53.145Z,2.50
2023-05-23T00:38:22.311Z,2.30
2023-05-23T00:40:51.452Z,2.30
2023-05-23T00:43:22.740Z,2.42
2023-05-23T00:45:49.977Z,2.67
2023-05-23T00:48:17.657Z,2.45
2023-05-23T00:50:44.893Z,2.63
2023-05-23T00:53:15.631Z,2.30
2023-05-23T00:55:43.298Z,2.67
2023-05-23T00:58:11.289Z,3.22
2023-05-23T01:00:38.874Z,4.10
2023-05-23T01:03:05.685Z,3.20
2023-05-23T01:05:32.604Z,3.17
2023-05-23T01:07:59.671Z,3.20
2023-05-23T01:10:28.188Z,3.40
2023-05-23T01:13:10.287Z,3.67
2023-05-23T01:15:42.647Z,3.30
2023-05-23T01:18:34.357Z,3.22
2023-05-23T01:21:09.628Z,3.33
2023-05-23T01:26:27.843Z,3.38
2023-05-23T01:29:07.737Z,3.80
2023-05-23T01:31:37.338Z,3.45
2023-05-23T01:34:05.459Z,4.03
2023-05-23T01:36:40.055Z,3.78
2023-05-23T01:39:06.794Z,3.63
2023-05-23T01:41:37.321Z,3.30
2023-05-23T01:44:05.703Z,3.72
2023-05-23T01:46:35.590Z,3.58
2023-05-23T01:49:04.526Z,3.28
2023-05-23T01:51:34.170Z,2.72
2023-05-23T01:54:01.594Z,3.30
2023-05-23T01:56:28.972Z,3.58
2023-05-23T01:58:59.113Z,2.95
2023-05-23T02:01:26.885Z,2.97
2023-05-23T02:03:53.834Z,3.05
2023-05-23T02:06:21.008Z,3.30
2023-05-23T02:08:47.727Z,3.00
2023-05-23T02:11:14.724Z,3.13
2023-05-23T02:13:41.615Z,3.03
2023-05-23T02:16:08.793Z,2.85
2023-05-23T02:18:40.100Z,2.97
2023-05-23T02:21:06.964Z,2.83
2023-05-23T02:23:38.192Z,2.33
2023-05-23T02:26:05.531Z,2.63
2023-05-23T02:28:32.356Z,3.03
2023-05-23T02:30:59.310Z,2.58
2023-05-23T02:33:26.080Z,2.80
2023-05-23T02:36:00.434Z,2.50
2023-05-23T02:38:27.476Z,2.63
2023-05-23T02:40:54.162Z,2.55
2023-05-23T02:43:22.001Z,2.75
2023-05-23T02:45:51.711Z,2.80
2023-05-23T02:48:18.815Z,2.60
2023-05-23T02:50:45.776Z,2.58
2023-05-23T02:53:12.516Z,2.72
2023-05-23T02:55:39.531Z,2.60
2023-05-23T02:58:07.090Z,2.28
2023-05-23T03:00:35.742Z,2.60
2023-05-23T03:03:03.152Z,2.13
2023-05-23T03:05:29.963Z,2.40
2023-05-23T03:07:57.798Z,1.80
2023-05-23T03:10:24.532Z,2.55
2023-05-23T03:12:51.590Z,2.72
2023-05-23T03:15:18.426Z,2.60
2023-05-23T03:17:47.832Z,2.50
2023-05-23T03:20:16.597Z,2.75
2023-05-23T03:22:46.202Z,2.90
2023-05-23T03:25:12.944Z,2.90
2023-05-23T03:27:39.903Z,2.42
2023-05-23T03:30:07.549Z,2.40
2023-05-23T03:32:34.596Z,2.47
2023-05-23T03:35:01.559Z,2.30
2023-05-23T03:37:33.575Z,2.20
2023-05-23T03:40:00.458Z,2.67
2023-05-23T03:42:28.813Z,2.30
2023-05-23T03:44:56.247Z,2.60
2023-05-23T03:47:27.551Z,2.92
2023-05-23T03:50:00.463Z,2.65
2023-05-23T03:52:28.073Z,2.42
2023-05-23T03:54:55.902Z,2.60
2023-05-23T03:57:23.202Z,2.92
2023-05-23T03:59:53.918Z,2.65
2023-05-23T04:02:26.073Z,3.00
2023-05-23T04:04:54.158Z,3.80
2023-05-23T04:07:20.948Z,2.88
2023-05-23T04:09:47.664Z,3.25
2023-05-23T04:12:15.571Z,3.10
2023-05-23T04:14:43.858Z,3.20
2023-05-23T04:17:15.147Z,3.05
2023-05-23T04:19:42.322Z,2.83
2023-05-23T04:22:18.845Z,3.00
2023-05-23T04:24:52.626Z,3.35
2023-05-23T04:27:29.770Z,3.13
2023-05-23T04:29:58.232Z,3.60
2023-05-23T04:32:28.520Z,2.67
2023-05-23T04:34:56.901Z,2.92
2023-05-23T04:37:26.345Z,3.53
2023-05-23T04:39:56.762Z,3.03
2023-05-23T04:42:57.055Z,3.50
2023-05-23T04:45:35.124Z,3.00
2023-05-23T04:48:05.377Z,2.55
2023-05-23T04:50:43.114Z,3.13
2023-05-23T04:53:09.947Z,2.65
2023-05-23T04:55:46.421Z,2.75
2023-05-23T04:58:16.746Z,3.40
2023-05-23T05:00:44.048Z,2.72
2023-05-23T05:03:16.184Z,3.30
2023-05-23T05:05:45.263Z,3.28
2023-05-23T05:08:14.352Z,3.47
2023-05-23T05:10:49.439Z,2.90
2023-05-23T05:13:21.517Z,3.67
2023-05-23T05:15:52.872Z,3.40
2023-05-23T05:18:20.022Z,3.20
2023-05-23T05:20:48.730Z,3.65
2023-05-23T05:23:16.213Z,3.42
2023-05-23T05:25:44.495Z,2.92
2023-05-23T05:28:12.156Z,3.35
2023-05-23T05:30:46.224Z,3.20
2023-05-23T05:33:13.248Z,3.33
2023-05-23T05:35:40.042Z,3.05
2023-05-23T05:38:08.324Z,3.05
2023-05-23T05:40:35.608Z,3.60
2023-05-23T05:43:11.277Z,3.45
2023-05-23T05:45:40.069Z,3.20
2023-05-23T05:48:10.317Z,3.22
2023-05-23T05:50:40.785Z,3.13
2023-05-23T05:53:09.858Z,3.55
2023-05-23T05:55:47.350Z,3.67
2023-05-23T05:58:14.893Z,3.40
2023-05-23T06:01:07.412Z,3.50
2023-05-23T06:03:34.543Z,4.97
2023-05-23T06:06:01.525Z,3.50
2023-05-23T06:08:28.552Z,3.60
2023-05-23T06:10:56.812Z,3.25
2023-05-23T06:13:25.229Z,3.58
2023-05-23T06:15:53.805Z,3.53
2023-05-23T06:18:20.736Z,3.35
2023-05-23T06:20:48.415Z,3.70
2023-05-23T06:23:16.975Z,3.70
2023-05-23T06:25:45.522Z,3.53
2023-05-23T06:28:12.845Z,3.33
2023-05-23T06:31:08.689Z,3.17
2023-05-23T06:33:42.084Z,3.30
2023-05-23T06:36:12.671Z,3.05
2023-05-23T06:38:47.065Z,3.60
2023-05-23T06:41:33.432Z,3.38
2023-05-23T06:44:00.650Z,3.85
2023-05-23T06:46:53.101Z,3.20
2023-05-23T06:49:18.460Z,3.40
2023-05-23T06:51:53.625Z,3.40
2023-05-23T06:54:37.508Z,2.88
2023-05-23T06:57:09.928Z,3.85
2023-05-23T06:59:37.512Z,4.18
2023-05-23T07:02:10.864Z,3.35
2023-05-23T07:04:42.531Z,2.70
2023-05-23T07:07:16.718Z,2.65
2023-05-23T07:09:44.598Z,3.05
2023-05-23T07:12:16.727Z,2.47
2023-05-23T07:15:10.492Z,3.05
2023-05-23T07:17:44.954Z,2.45
2023-05-23T07:20:46.594Z,2.60
2023-05-23T07:23:19.262Z,2.50
2023-05-23T07:26:01.030Z,2.25
2023-05-23T07:28:47.682Z,2.10
2023-05-23T07:31:20.684Z,2.20
2023-05-23T07:33:50.990Z,2.40
2023-05-23T07:36:34.070Z,2.17
2023-05-23T07:39:02.355Z,2.70
2023-05-23T07:41:29.474Z,2.85
2023-05-23T07:43:56.309Z,2.40
2023-05-23T07:46:23.449Z,2.55
2023-05-23T07:48:50.464Z,2.70
2023-05-23T07:51:23.517Z,2.88
2023-05-23T07:53:51.415Z,2.17
2023-05-23T07:56:22.158Z,2.72
2023-05-23T07:58:49.031Z,2.47
2023-05-23T08:01:16.804Z,2.45
2023-05-23T08:04:02.415Z,2.10
2023-05-23T08:06:45.751Z,2.88
2023-05-23T08:09:20.078Z,2.05
2023-05-23T08:11:51.098Z,1.95
2023-05-23T08:14:18.361Z,2.50
2023-05-23T08:16:53.738Z,2.42
2023-05-23T08:19:24.099Z,2.40
2023-05-23T08:21:53.092Z,2.42
2023-05-23T08:24:21.180Z,1.77
2023-05-23T08:26:48.473Z,1.83
2023-05-23T08:31:43.190Z,2.00
2023-05-23T08:34:11.875Z,1.90
2023-05-23T08:36:40.137Z,2.00
2023-05-23T08:39:11.266Z,2.05
2023-05-23T08:41:47.284Z,1.90
2023-05-23T08:44:14.326Z,1.80
2023-05-23T08:46:49.726Z,1.73
2023-05-23T08:49:38.509Z,1.80
2023-05-23T08:52:10.086Z,2.22
2023-05-23T08:54:37.683Z,1.58
2023-05-23T08:57:04.640Z,1.30
2023-05-23T08:59:39.110Z,1.77
2023-05-23T09:02:12.636Z,1.80
2023-05-23T09:04:39.477Z,1.77
2023-05-23T09:07:20.377Z,1.60
2023-05-23T09:09:49.223Z,2.00
2023-05-23T09:12:16.849Z,1.95
2023-05-23T09:14:47.087Z,1.80
2023-05-23T09:17:22.462Z,1.70
2023-05-23T09:19:51.682Z,1.58
2023-05-23T09:22:30.654Z,1.83
2023-05-23T09:25:05.466Z,1.73
2023-05-23T09:27:32.663Z,1.85
2023-05-23T09:30:06.711Z,1.95
2023-05-23T09:32:33.442Z,2.30
2023-05-23T09:35:05.228Z,2.08
2023-05-23T09:37:39.343Z,2.00
2023-05-23T09:40:11.610Z,1.80
2023-05-23T09:42:48.118Z,1.90
2023-05-23T09:45:16.396Z,2.25
2023-05-23T09:47:53.874Z,2.00
2023-05-23T09:50:22.986Z,1.65
2023-05-23T09:52:53.555Z,1.98
2023-05-23T09:55:30.136Z,2.00
2023-05-23T09:57:59.708Z,1.73
2023-05-23T10:00:28.440Z,2.03
2023-05-23T10:03:14.490Z,2.42
2023-05-23T10:05:49.101Z,2.30
2023-05-23T10:08:30.211Z,2.30
2023-05-23T10:10:57.079Z,3.03
2023-05-23T10:13:29.439Z,2.10
2023-05-23T10:16:02.965Z,1.98
2023-05-23T10:18:32.346Z,2.50
2023-05-23T10:21:06.933Z,2.33
2023-05-23T10:23:34.087Z,1.92
2023-05-23T10:26:01.203Z,2.70
2023-05-23T10:28:30.061Z,2.25
2023-05-23T10:30:57.779Z,2.47
2023-05-23T10:33:26.273Z,1.83
2023-05-23T10:36:19.409Z,2.83
2023-05-23T10:38:51.760Z,2.05
2023-05-23T10:41:32.260Z,2.70
2023-05-23T10:44:08.634Z,2.40
2023-05-23T10:47:01.574Z,1.90
2023-05-23T10:49:46.027Z,1.92
2023-05-23T10:52:17.210Z,2.10
2023-05-23T10:54:46.619Z,1.67
2023-05-23T10:57:17.636Z,1.70
2023-05-23T10:59:47.125Z,1.40
2023-05-23T11:02:18.245Z,1.90
2023-05-23T11:05:14.193Z,2.17
2023-05-23T11:07:46.179Z,2.22
2023-05-23T11:10:14.443Z,1.90
2023-05-23T11:12:44.870Z,1.98
2023-05-23T11:15:21.860Z,2.50
2023-05-23T11:17:59.328Z,2.13
2023-05-23T11:20:32.735Z,2.60
2023-05-23T11:23:10.776Z,2.05
2023-05-23T11:25:56.820Z,1.80
2023-05-23T11:29:04.412Z,1.73
2023-05-23T11:31:40.583Z,2.10
2023-05-23T11:34:08.949Z,2.03
2023-05-23T11:36:36.334Z,2.05
2023-05-23T11:39:04.417Z,2.20
2023-05-23T11:41:33.564Z,1.90
2023-05-23T11:44:01.719Z,2.00
2023-05-23T11:46:28.738Z,1.88
2023-05-23T11:48:55.969Z,1.90
2023-05-23T11:51:24.212Z,1.83
2023-05-23T11:53:51.438Z,2.70
2023-05-23T11:56:21.238Z,2.20
2023-05-23T11:58:57.027Z,1.70
2023-05-23T12:01:39.669Z,2.67
2023-05-23T12:04:40.237Z,2.22
2023-05-23T12:07:07.802Z,1.85
2023-05-23T12:09:54.083Z,2.13
2023-05-23T12:12:24.259Z,2.28
2023-05-23T12:14:56.523Z,1.80
2023-05-23T12:17:24.340Z,2.10
2023-05-23T12:20:02.309Z,2.28
2023-05-23T12:22:30.856Z,1.90
2023-05-23T12:24:57.874Z,1.85
2023-05-23T12:27:37.258Z,2.00
2023-05-23T12:30:16.776Z,2.05
2023-05-23T12:32:48.239Z,1.83
2023-05-23T12:35:16.699Z,1.85
2023-05-23T12:37:59.676Z,2.83
2023-05-23T12:40:29.714Z,2.10
2023-05-23T12:43:12.436Z,1.85
2023-05-23T12:45:49.203Z,1.63
2023-05-23T12:48:18.774Z,2.10
2023-05-23T12:50:46.843Z,2.03
2023-05-23T12:53:16.329Z,2.10
2023-05-23T12:55:45.377Z,2.00
2023-05-23T12:58:12.275Z,2.45
2023-05-23T13:00:44.491Z,1.92
2023-05-23T13:03:11.473Z,2.20
2023-05-23T13:05:39.226Z,1.75
2023-05-23T13:08:08.582Z,2.00
2023-05-23T13:10:37.669Z,2.08
2023-05-23T13:13:05.024Z,2.35
2023-05-23T13:15:32.651Z,2.20
2023-05-23T13:18:00.190Z,2.10
2023-05-23T13:20:30.341Z,1.65
2023-05-23T13:22:58.348Z,2.00
2023-05-23T13:25:26.188Z,1.73
2023-05-23T13:27:53.519Z,1.67
2023-05-23T13:30:23.981Z,1.85
2023-05-23T13:32:52.675Z,1.63
2023-05-23T13:35:19.722Z,2.20
2023-05-23T13:37:46.749Z,1.90
2023-05-23T13:40:20.827Z,1.45
2023-05-23T13:42:49.274Z,1.67
2023-05-23T13:45:16.120Z,1.95
2023-05-23T13:47:43.135Z,2.13
2023-05-23T13:50:10.730Z,1.90
2023-05-23T13:52:38.067Z,3.17
2023-05-23T13:55:06.002Z,2.33
2023-05-23T13:57:32.843Z,2.00
2023-05-23T13:59:59.729Z,1.73
2023-05-23T14:02:27.529Z,1.85
2023-05-23T14:04:54.453Z,1.70
2023-05-23T14:07:22.096Z,2.00
2023-05-23T14:09:48.792Z,2.40
2023-05-23T14:12:16.606Z,1.75
2023-05-23T14:14:43.766Z,2.00
2023-05-23T14:17:16.850Z,1.75
2023-05-23T14:19:44.201Z,2.25
2023-05-23T14:22:11.615Z,1.88
2023-05-23T14:24:40.403Z,1.73
2023-05-23T14:27:11.276Z,2.15
2023-05-23T14:29:38.723Z,1.45
2023-05-23T14:32:09.998Z,1.90
2023-05-23T14:34:39.217Z,1.75
2023-05-23T14:37:07.419Z,2.08
2023-05-23T14:39:34.502Z,1.90
2023-05-23T14:42:02.724Z,1.73
2023-05-23T14:44:33.903Z,1.70
2023-05-23T14:47:03.999Z,1.70
2023-05-23T14:49:30.991Z,1.95
2023-05-23T14:51:58.307Z,1.60
2023-05-23T14:54:25.218Z,1.90
2023-05-23T14:56:53.445Z,1.90
2023-05-23T14:59:20.679Z,1.85
2023-05-23T15:01:47.592Z,2.03
2023-05-23T15:04:14.717Z,2.42
2023-05-23T15:06:48.512Z,2.03
2023-05-23T15:09:19.235Z,2.30
2023-05-23T15:11:50.467Z,2.53
2023-05-23T15:14:17.378Z,1.88
2023-05-23T15:16:45.971Z,1.88
2023-05-23T15:19:13.009Z,2.00
2023-05-23T15:21:49.629Z,2.30
2023-05-23T15:24:23.168Z,1.92
2023-05-23T15:26:52.593Z,2.10
2023-05-23T15:29:22.613Z,2.20
2023-05-23T15:31:49.893Z,2.50
2023-05-23T15:34:19.265Z,2.00
2023-05-23T15:36:46.196Z,2.17
2023-05-23T15:39:13.244Z,2.28
2023-05-23T15:41:40.389Z,2.50
2023-05-23T15:44:07.425Z,1.92
2023-05-23T15:46:34.243Z,2.50
2023-05-23T15:49:10.288Z,2.28
2023-05-23T15:51:40.486Z,2.72
2023-05-23T15:54:10.327Z,2.45
2023-05-23T15:56:37.140Z,2.00
2023-05-23T15:59:04.026Z,2.60
2023-05-23T16:01:30.966Z,1.40
2023-05-23T16:03:58.017Z,2.40
2023-05-23T16:06:25.401Z,2.70
2023-05-23T16:08:52.383Z,1.83
2023-05-23T16:11:19.213Z,2.40
2023-05-23T16:13:48.702Z,3.08
2023-05-23T16:16:15.543Z,1.95
2023-05-23T16:18:42.607Z,1.92
2023-05-23T16:21:09.462Z,2.67
2023-05-23T16:23:37.618Z,2.42
2023-05-23T16:26:08.858Z,2.40
2023-05-23T16:28:44.555Z,3.13
2023-05-23T16:31:18.106Z,5.32
2023-05-23T16:33:47.790Z,2.58
2023-05-23T16:36:14.638Z,5.03
2023-05-23T16:38:41.519Z,2.78
2023-05-23T16:41:09.063Z,3.47
2023-05-23T16:43:36.745Z,3.85
2023-05-23T16:46:06.341Z,2.83
2023-05-23T16:48:34.547Z,2.72
2023-05-23T16:51:01.465Z,2.50
2023-05-23T16:53:28.475Z,2.22
2023-05-23T16:55:57.322Z,2.70
2023-05-23T16:58:24.112Z,2.38
2023-05-23T17:00:52.104Z,2.42
2023-05-23T17:03:24.847Z,2.45
2023-05-23T17:05:52.078Z,2.70
2023-05-23T17:08:31.291Z,2.60
2023-05-23T17:11:15.830Z,2.67
2023-05-23T17:13:56.201Z,2.90
2023-05-23T17:16:34.282Z,3.17
2023-05-23T17:19:08.038Z,2.50
2023-05-23T17:21:48.352Z,2.65
2023-05-23T17:24:37.824Z,2.97
2023-05-23T17:32:54.492Z,3.60
2023-05-23T17:35:28.096Z,2.85
2023-05-23T17:38:02.036Z,2.38
2023-05-23T17:40:44.835Z,3.22
2023-05-23T17:47:02.099Z,3.53
2023-05-23T17:50:08.763Z,3.38
2023-05-23T17:56:51.007Z,2.75
2023-05-23T18:06:20.206Z,2.70
2023-05-23T18:08:56.010Z,2.35
2023-05-23T18:11:24.337Z,3.22
2023-05-23T18:13:51.439Z,3.08
2023-05-23T18:16:21.461Z,2.85
2023-05-23T18:18:51.475Z,5.45
2023-05-23T18:21:18.419Z,2.95
2023-05-23T18:23:45.070Z,2.92
2023-05-23T18:26:11.887Z,3.15
2023-05-23T18:28:38.750Z,3.90
2023-05-23T18:31:05.583Z,3.35
2023-05-23T18:33:32.334Z,3.33
2023-05-23T18:35:59.100Z,3.42
2023-05-23T18:38:26.399Z,3.97
2023-05-23T18:40:53.160Z,3.70
2023-05-23T18:43:19.818Z,3.58
2023-05-23T18:45:46.432Z,3.72
2023-05-23T18:48:13.089Z,4.00
2023-05-23T18:50:39.988Z,4.35
2023-05-23T18:53:07.422Z,4.45
2023-05-23T18:55:36.093Z,4.40
2023-05-23T18:58:03.018Z,4.22
2023-05-23T19:00:29.667Z,3.97
2023-05-23T19:02:56.658Z,3.38
2023-05-23T19:05:24.438Z,4.80
2023-05-23T19:08:16.084Z,4.35
2023-05-23T19:11:04.953Z,4.55
2023-05-23T19:13:32.000Z,4.32
2023-05-23T19:15:58.768Z,4.40
2023-05-23T19:18:26.092Z,4.70
2023-05-23T19:20:53.212Z,4.50
2023-05-23T19:23:19.970Z,3.50
2023-05-23T19:25:47.065Z,3.85
2023-05-23T19:28:15.183Z,4.75
2023-05-23T19:30:42.041Z,4.05
2023-05-23T19:33:08.940Z,4.05
2023-05-23T19:35:35.818Z,4.07
2023-05-23T19:38:02.596Z,4.18
2023-05-23T19:40:29.441Z,3.85
2023-05-23T19:42:56.156Z,4.10
2023-05-23T19:45:29.018Z,3.78
2023-05-23T19:47:57.771Z,4.03
2023-05-23T19:51:00.789Z,4.30
2023-05-23T19:53:38.047Z,4.75
2023-05-23T19:56:40.516Z,4.20
2023-05-23T19:59:29.934Z,4.32
2023-05-23T20:02:55.644Z,4.63
2023-05-23T20:05:35.066Z,4.63
2023-05-23T20:08:09.220Z,4.65
2023-05-23T20:10:36.202Z,3.72
2023-05-23T20:13:29.413Z,4.05
2023-05-23T20:16:01.538Z,3.70
2023-05-23T20:18:28.316Z,4.40
2023-05-23T20:20:55.225Z,3.78
2023-05-23T20:23:22.834Z,4.40
2023-05-23T20:25:49.797Z,4.45
2023-05-23T20:28:18.007Z,4.45
2023-05-23T20:30:44.895Z,4.80
2023-05-23T20:33:15.352Z,4.45
2023-05-23T20:35:42.789Z,4.50
2023-05-23T20:38:09.770Z,3.83
2023-05-23T20:40:36.616Z,4.90
2023-05-23T20:43:05.126Z,4.80
2023-05-23T20:45:53.814Z,4.43
2023-05-23T20:48:28.675Z,4.60
2023-05-23T20:50:58.728Z,4.45
2023-05-23T20:53:29.384Z,3.47
2023-05-23T20:56:07.917Z,4.45
2023-05-23T20:59:00.395Z,5.20
2023-05-23T21:01:30.378Z,3.92
2023-05-23T21:03:57.436Z,4.90
2023-05-23T21:06:36.337Z,4.15
2023-05-23T21:09:10.407Z,4.22
2023-05-23T21:11:43.089Z,5.18
2023-05-23T21:14:09.979Z,4.82
2023-05-23T21:16:37.098Z,3.95
2023-05-23T21:19:04.021Z,4.75
2023-05-23T21:21:30.992Z,4.45
2023-05-23T21:23:57.745Z,4.40
2023-05-23T21:26:24.547Z,4.50
2023-05-23T21:28:51.415Z,4.25
2023-05-23T21:31:40.395Z,4.47
2023-05-23T21:34:22.327Z,4.90
2023-05-23T21:37:01.795Z,4.45
2023-05-23T21:52:01.253Z,3.95
2023-05-23T21:57:29.432Z,4.10
2023-05-23T21:59:59.250Z,4.30
2023-05-23T22:02:26.042Z,4.32
2023-05-23T22:04:53.027Z,4.07
2023-05-23T22:07:25.095Z,4.18
2023-05-23T22:09:56.329Z,3.88
2023-05-23T22:12:24.472Z,4.00
2023-05-23T22:14:51.503Z,5.13
2023-05-23T22:17:21.919Z,3.97
2023-05-23T22:19:48.808Z,3.63
2023-05-23T22:22:15.639Z,3.63
2023-05-23T22:24:42.669Z,4.18
2023-05-23T22:27:09.430Z,4.45
2023-05-23T22:29:36.166Z,4.13
2023-05-23T22:32:03.005Z,3.72
2023-05-23T22:34:30.048Z,4.10
2023-05-23T22:36:59.646Z,3.63
2023-05-23T22:39:28.694Z,3.67
2023-05-23T22:41:55.302Z,3.90
2023-05-23T22:44:22.024Z,4.07
2023-05-23T22:46:50.057Z,3.40
2023-05-23T22:49:16.733Z,3.88
2023-05-23T22:51:45.991Z,3.72
2023-05-23T22:54:12.716Z,4.15
2023-05-23T22:56:39.451Z,4.10
2023-05-23T22:59:06.376Z,3.38
2023-05-23T23:01:33.873Z,3.42
2023-05-23T23:04:00.586Z,3.50
2023-05-23T23:06:27.236Z,3.65
2023-05-23T23:08:53.941Z,4.03
2023-05-23T23:11:22.255Z,4.13
2023-05-23T23:13:48.985Z,3.45
2023-05-23T23:16:19.229Z,3.92
2023-05-23T23:18:47.216Z,3.78
2023-05-23T23:21:14.078Z,3.80
2023-05-23T23:23:40.974Z,4.03
2023-05-23T23:26:07.661Z,3.90
2023-05-23T23:28:34.349Z,3.97
2023-05-23T23:31:01.231Z,3.53
2023-05-23T23:33:27.997Z,4.15
2023-05-23T23:35:57.446Z,3.45
2023-05-23T23:38:24.196Z,3.95
2023-05-23T23:40:50.858Z,3.72
2023-05-23T23:43:17.586Z,3.33
2023-05-23T23:45:44.214Z,3.92
2023-05-23T23:48:13.892Z,3.88
2023-05-23T23:50:40.783Z,3.85
2023-05-23T23:53:07.973Z,4.18
2023-05-23T23:55:34.630Z,4.13
2023-05-23T23:58:01.376Z,4.82
